sensor_id;sensor_type;location;lat;lon;timestamp;temperature;humidity
13998;DHT22;7074;51.508;7.018;2023-02-11T00:01:24;8.20;99.90
13998;DHT22;7074;51.508;7.018;2023-02-11T00:03:52;8.20;99.90
13998;DHT22;7074;51.508;7.018;2023-02-11T00:06:20;8.20;99.90
13998;DHT22;7074;51.508;7.018;2023-02-11T00:08:48;8.20;99.90
13998;DHT22;7074;51.508;7.018;2023-02-11T00:11:17;8.20;99.90
13998;DHT22;7074;51.508;7.018;2023-02-11T00:13:45;8.20;99.90
13998;DHT22;7074;51.508;7.018;2023-02-11T00:16:14;8.20;99.90
13998;DHT22;7074;51.508;7.018;2023-02-11T00:18:44;8.20;99.90
13998;DHT22;7074;51.508;7.018;2023-02-11T00:21:13;8.20;99.90
13998;DHT22;7074;51.508;7.018;2023-02-11T00:23:40;8.20;99.90
13998;DHT22;7074;51.508;7.018;2023-02-11T00:26:11;8.20;99.90
13998;DHT22;7074;51.508;7.018;2023-02-11T00:28:41;8.20;99.90
13998;DHT22;7074;51.508;7.018;2023-02-11T00:31:10;8.20;99.90
13998;DHT22;7074;51.508;7.018;2023-02-11T00:33:37;8.20;99.90
13998;DHT22;7074;51.508;7.018;2023-02-11T00:36:08;8.20;99.90
13998;DHT22;7074;51.508;7.018;2023-02-11T00:38:36;8.20;99.90
13998;DHT22;7074;51.508;7.018;2023-02-11T00:41:05;8.30;99.90
13998;DHT22;7074;51.508;7.018;2023-02-11T00:43:32;8.30;99.90
13998;DHT22;7074;51.508;7.018;2023-02-11T00:45:59;8.30;99.90
13998;DHT22;7074;51.508;7.018;2023-02-11T00:48:26;8.30;99.90
13998;DHT22;7074;51.508;7.018;2023-02-11T00:50:54;8.30;99.90
13998;DHT22;7074;51.508;7.018;2023-02-11T00:53:22;8.30;99.90
13998;DHT22;7074;51.508;7.018;2023-02-11T00:55:50;8.30;99.90
13998;DHT22;7074;51.508;7.018;2023-02-11T00:58:17;8.30;99.90
13998;DHT22;7074;51.508;7.018;2023-02-11T01:00:44;8.30;99.90
13998;DHT22;7074;51.508;7.018;2023-02-11T01:03:13;8.30;99.90
13998;DHT22;7074;51.508;7.018;2023-02-11T01:05:40;8.30;99.90
13998;DHT22;7074;51.508;7.018;2023-02-11T01:08:09;8.30;99.90
13998;DHT22;7074;51.508;7.018;2023-02-11T01:10:37;8.30;99.90
13998;DHT22;7074;51.508;7.018;2023-02-11T01:13:05;8.30;99.90
13998;DHT22;7074;51.508;7.018;2023-02-11T01:15:32;8.30;99.90
13998;DHT22;7074;51.508;7.018;2023-02-11T01:17:59;8.30;99.90
13998;DHT22;7074;51.508;7.018;2023-02-11T01:20:27;8.30;99.90
13998;DHT22;7074;51.508;7.018;2023-02-11T01:22:56;8.40;99.90
13998;DHT22;7074;51.508;7.018;2023-02-11T01:25:23;8.30;99.90
13998;DHT22;7074;51.508;7.018;2023-02-11T01:27:52;8.30;99.90
13998;DHT22;7074;51.508;7.018;2023-02-11T01:30:19;8.30;99.90
13998;DHT22;7074;51.508;7.018;2023-02-11T01:32:46;8.30;99.90
13998;DHT22;7074;51.508;7.018;2023-02-11T01:35:14;8.30;99.90
13998;DHT22;7074;51.508;7.018;2023-02-11T01:37:41;8.30;99.90
13998;DHT22;7074;51.508;7.018;2023-02-11T01:40:15;8.30;99.90
13998;DHT22;7074;51.508;7.018;2023-02-11T01:42:43;8.30;99.90
13998;DHT22;7074;51.508;7.018;2023-02-11T01:48:29;8.30;99.90
13998;DHT22;7074;51.508;7.018;2023-02-11T01:51:02;8.30;99.90
13998;DHT22;7074;51.508;7.018;2023-02-11T01:53:31;8.30;99.90
13998;DHT22;7074;51.508;7.018;2023-02-11T01:56:26;8.30;99.90
13998;DHT22;7074;51.508;7.018;2023-02-11T01:59:17;8.30;99.90
13998;DHT22;7074;51.508;7.018;2023-02-11T02:01:49;8.30;99.90
13998;DHT22;7074;51.508;7.018;2023-02-11T02:04:21;8.30;99.90
13998;DHT22;7074;51.508;7.018;2023-02-11T02:06:57;8.30;99.90
13998;DHT22;7074;51.508;7.018;2023-02-11T02:09:28;8.30;99.90
13998;DHT22;7074;51.508;7.018;2023-02-11T02:11:56;8.40;99.90
13998;DHT22;7074;51.508;7.018;2023-02-11T02:14:24;8.30;99.90
13998;DHT22;7074;51.508;7.018;2023-02-11T02:16:52;8.20;99.90
13998;DHT22;7074;51.508;7.018;2023-02-11T02:22:51;8.20;99.90
13998;DHT22;7074;51.508;7.018;2023-02-11T02:25:41;8.30;99.90
13998;DHT22;7074;51.508;7.018;2023-02-11T02:28:27;8.20;99.90
13998;DHT22;7074;51.508;7.018;2023-02-11T02:31:22;8.20;99.90
13998;DHT22;7074;51.508;7.018;2023-02-11T02:33:56;8.20;99.90
13998;DHT22;7074;51.508;7.018;2023-02-11T02:36:31;8.20;99.90
13998;DHT22;7074;51.508;7.018;2023-02-11T02:39:05;8.20;99.90
13998;DHT22;7074;51.508;7.018;2023-02-11T02:41:34;8.20;99.90
13998;DHT22;7074;51.508;7.018;2023-02-11T02:44:03;8.20;99.90
13998;DHT22;7074;51.508;7.018;2023-02-11T02:46:32;8.20;99.90
13998;DHT22;7074;51.508;7.018;2023-02-11T02:49:01;8.20;99.90
13998;DHT22;7074;51.508;7.018;2023-02-11T02:52:02;8.20;99.90
13998;DHT22;7074;51.508;7.018;2023-02-11T02:57:32;8.20;99.90
13998;DHT22;7074;51.508;7.018;2023-02-11T03:00:19;8.20;99.90
13998;DHT22;7074;51.508;7.018;2023-02-11T03:03:03;8.20;99.90
13998;DHT22;7074;51.508;7.018;2023-02-11T03:05:39;8.20;99.90
13998;DHT22;7074;51.508;7.018;2023-02-11T03:08:12;8.20;99.90
13998;DHT22;7074;51.508;7.018;2023-02-11T03:10:44;8.10;99.90
13998;DHT22;7074;51.508;7.018;2023-02-11T03:13:14;8.10;99.90
13998;DHT22;7074;51.508;7.018;2023-02-11T03:15:44;8.10;99.90
13998;DHT22;7074;51.508;7.018;2023-02-11T03:18:15;8.10;99.90
13998;DHT22;7074;51.508;7.018;2023-02-11T03:20:47;8.10;99.90
13998;DHT22;7074;51.508;7.018;2023-02-11T03:23:20;8.20;99.90
13998;DHT22;7074;51.508;7.018;2023-02-11T03:25:52;8.10;99.90
13998;DHT22;7074;51.508;7.018;2023-02-11T03:28:25;8.10;99.90
13998;DHT22;7074;51.508;7.018;2023-02-11T03:31:03;8.10;99.90
13998;DHT22;7074;51.508;7.018;2023-02-11T03:33:37;8.10;99.90
13998;DHT22;7074;51.508;7.018;2023-02-11T03:36:12;8.10;99.90
13998;DHT22;7074;51.508;7.018;2023-02-11T03:38:45;8.10;99.90
13998;DHT22;7074;51.508;7.018;2023-02-11T03:41:14;8.10;99.90
13998;DHT22;7074;51.508;7.018;2023-02-11T03:43:44;8.10;99.90
13998;DHT22;7074;51.508;7.018;2023-02-11T03:46:15;8.10;99.90
13998;DHT22;7074;51.508;7.018;2023-02-11T03:48:47;8.10;99.90
13998;DHT22;7074;51.508;7.018;2023-02-11T03:51:16;8.00;99.90
13998;DHT22;7074;51.508;7.018;2023-02-11T03:53:46;8.00;99.90
13998;DHT22;7074;51.508;7.018;2023-02-11T03:56:16;8.00;99.90
13998;DHT22;7074;51.508;7.018;2023-02-11T03:58:45;8.00;99.90
13998;DHT22;7074;51.508;7.018;2023-02-11T04:01:13;8.00;99.90
13998;DHT22;7074;51.508;7.018;2023-02-11T04:03:41;8.00;99.90
13998;DHT22;7074;51.508;7.018;2023-02-11T04:06:08;7.90;99.90
13998;DHT22;7074;51.508;7.018;2023-02-11T04:08:37;7.90;99.90
13998;DHT22;7074;51.508;7.018;2023-02-11T04:11:04;7.90;99.90
13998;DHT22;7074;51.508;7.018;2023-02-11T04:13:31;7.90;99.90
13998;DHT22;7074;51.508;7.018;2023-02-11T04:15:58;7.90;99.90
13998;DHT22;7074;51.508;7.018;2023-02-11T04:18:26;7.80;99.90
13998;DHT22;7074;51.508;7.018;2023-02-11T04:20:53;7.80;99.90
13998;DHT22;7074;51.508;7.018;2023-02-11T04:23:20;7.80;99.90
13998;DHT22;7074;51.508;7.018;2023-02-11T04:25:49;7.80;99.90
13998;DHT22;7074;51.508;7.018;2023-02-11T04:28:16;7.70;99.90
13998;DHT22;7074;51.508;7.018;2023-02-11T04:30:44;7.70;99.90
13998;DHT22;7074;51.508;7.018;2023-02-11T04:33:11;7.70;99.90
13998;DHT22;7074;51.508;7.018;2023-02-11T04:35:38;7.70;99.90
13998;DHT22;7074;51.508;7.018;2023-02-11T04:38:06;7.80;99.90
13998;DHT22;7074;51.508;7.018;2023-02-11T04:40:33;7.80;99.90
13998;DHT22;7074;51.508;7.018;2023-02-11T04:43:01;7.80;99.90
13998;DHT22;7074;51.508;7.018;2023-02-11T04:45:29;7.80;99.90
13998;DHT22;7074;51.508;7.018;2023-02-11T04:47:56;7.80;99.90
13998;DHT22;7074;51.508;7.018;2023-02-11T04:50:23;7.80;99.90
13998;DHT22;7074;51.508;7.018;2023-02-11T04:52:51;7.80;99.90
13998;DHT22;7074;51.508;7.018;2023-02-11T04:55:18;7.80;99.90
13998;DHT22;7074;51.508;7.018;2023-02-11T04:57:46;7.80;99.90
13998;DHT22;7074;51.508;7.018;2023-02-11T05:00:15;7.70;99.90
13998;DHT22;7074;51.508;7.018;2023-02-11T05:02:43;7.70;99.90
13998;DHT22;7074;51.508;7.018;2023-02-11T05:05:10;7.70;99.90
13998;DHT22;7074;51.508;7.018;2023-02-11T05:07:37;7.70;99.90
13998;DHT22;7074;51.508;7.018;2023-02-11T05:10:05;7.70;99.90
13998;DHT22;7074;51.508;7.018;2023-02-11T05:12:32;7.70;99.90
13998;DHT22;7074;51.508;7.018;2023-02-11T05:14:59;7.70;99.90
13998;DHT22;7074;51.508;7.018;2023-02-11T05:17:28;7.60;99.90
13998;DHT22;7074;51.508;7.018;2023-02-11T05:19:55;7.60;99.90
13998;DHT22;7074;51.508;7.018;2023-02-11T05:22:22;7.60;99.90
13998;DHT22;7074;51.508;7.018;2023-02-11T05:24:50;7.60;99.90
13998;DHT22;7074;51.508;7.018;2023-02-11T05:27:17;7.70;99.90
13998;DHT22;7074;51.508;7.018;2023-02-11T05:29:44;7.70;99.90
13998;DHT22;7074;51.508;7.018;2023-02-11T05:32:11;7.70;99.90
13998;DHT22;7074;51.508;7.018;2023-02-11T05:34:40;7.60;99.90
13998;DHT22;7074;51.508;7.018;2023-02-11T05:37:07;7.60;99.90
13998;DHT22;7074;51.508;7.018;2023-02-11T05:39:35;7.70;99.90
13998;DHT22;7074;51.508;7.018;2023-02-11T05:42:02;7.70;99.90
13998;DHT22;7074;51.508;7.018;2023-02-11T05:44:29;7.70;99.90
13998;DHT22;7074;51.508;7.018;2023-02-11T05:46:57;7.70;99.90
13998;DHT22;7074;51.508;7.018;2023-02-11T05:49:24;7.70;99.90
13998;DHT22;7074;51.508;7.018;2023-02-11T05:51:53;7.70;99.90
13998;DHT22;7074;51.508;7.018;2023-02-11T05:54:20;7.60;99.90
13998;DHT22;7074;51.508;7.018;2023-02-11T05:56:47;7.60;99.90
13998;DHT22;7074;51.508;7.018;2023-02-11T05:59:14;7.60;99.90
13998;DHT22;7074;51.508;7.018;2023-02-11T06:01:41;7.70;99.90
13998;DHT22;7074;51.508;7.018;2023-02-11T06:04:09;7.70;99.90
13998;DHT22;7074;51.508;7.018;2023-02-11T06:06:36;7.60;99.90
13998;DHT22;7074;51.508;7.018;2023-02-11T06:09:05;7.60;99.90
13998;DHT22;7074;51.508;7.018;2023-02-11T06:11:32;7.60;99.90
13998;DHT22;7074;51.508;7.018;2023-02-11T06:14:00;7.70;99.90
13998;DHT22;7074;51.508;7.018;2023-02-11T06:16:27;7.70;99.90
13998;DHT22;7074;51.508;7.018;2023-02-11T06:18:54;7.70;99.90
13998;DHT22;7074;51.508;7.018;2023-02-11T06:21:22;7.70;99.90
13998;DHT22;7074;51.508;7.018;2023-02-11T06:23:49;7.70;99.90
13998;DHT22;7074;51.508;7.018;2023-02-11T06:26:19;7.70;99.90
13998;DHT22;7074;51.508;7.018;2023-02-11T06:28:47;7.70;99.90
13998;DHT22;7074;51.508;7.018;2023-02-11T06:31:14;7.70;99.90
13998;DHT22;7074;51.508;7.018;2023-02-11T06:33:42;7.80;99.90
13998;DHT22;7074;51.508;7.018;2023-02-11T06:36:14;7.80;99.90
13998;DHT22;7074;51.508;7.018;2023-02-11T06:38:42;7.80;99.90
13998;DHT22;7074;51.508;7.018;2023-02-11T06:41:10;7.80;99.90
13998;DHT22;7074;51.508;7.018;2023-02-11T06:43:39;7.80;99.90
13998;DHT22;7074;51.508;7.018;2023-02-11T06:46:07;7.80;99.90
13998;DHT22;7074;51.508;7.018;2023-02-11T06:48:35;7.80;99.90
13998;DHT22;7074;51.508;7.018;2023-02-11T06:51:04;7.80;99.90
13998;DHT22;7074;51.508;7.018;2023-02-11T06:53:35;7.80;99.90
13998;DHT22;7074;51.508;7.018;2023-02-11T06:56:03;7.70;99.90
13998;DHT22;7074;51.508;7.018;2023-02-11T06:58:31;7.80;99.90
13998;DHT22;7074;51.508;7.018;2023-02-11T07:01:03;7.70;99.90
13998;DHT22;7074;51.508;7.018;2023-02-11T07:03:31;7.70;99.90
13998;DHT22;7074;51.508;7.018;2023-02-11T07:05:59;7.70;99.90
13998;DHT22;7074;51.508;7.018;2023-02-11T07:08:26;7.80;99.90
13998;DHT22;7074;51.508;7.018;2023-02-11T07:10:54;7.80;99.90
13998;DHT22;7074;51.508;7.018;2023-02-11T07:13:21;7.80;99.90
13998;DHT22;7074;51.508;7.018;2023-02-11T07:15:48;7.80;99.90
13998;DHT22;7074;51.508;7.018;2023-02-11T07:18:17;7.80;99.90
13998;DHT22;7074;51.508;7.018;2023-02-11T07:20:44;7.80;99.90
13998;DHT22;7074;51.508;7.018;2023-02-11T07:23:11;7.90;99.90
13998;DHT22;7074;51.508;7.018;2023-02-11T07:25:39;7.80;99.90
13998;DHT22;7074;51.508;7.018;2023-02-11T07:28:06;7.80;99.90
13998;DHT22;7074;51.508;7.018;2023-02-11T07:30:33;7.90;99.90
13998;DHT22;7074;51.508;7.018;2023-02-11T07:33:00;7.80;99.90
13998;DHT22;7074;51.508;7.018;2023-02-11T07:35:29;7.90;99.90
13998;DHT22;7074;51.508;7.018;2023-02-11T07:37:56;7.90;99.90
13998;DHT22;7074;51.508;7.018;2023-02-11T07:40:23;7.90;99.90
13998;DHT22;7074;51.508;7.018;2023-02-11T07:42:51;7.90;99.90
13998;DHT22;7074;51.508;7.018;2023-02-11T07:45:18;7.90;99.90
13998;DHT22;7074;51.508;7.018;2023-02-11T07:47:45;7.90;99.90
13998;DHT22;7074;51.508;7.018;2023-02-11T07:50:13;7.90;99.90
13998;DHT22;7074;51.508;7.018;2023-02-11T07:52:41;7.90;99.90
13998;DHT22;7074;51.508;7.018;2023-02-11T07:55:09;7.90;99.90
13998;DHT22;7074;51.508;7.018;2023-02-11T07:57:36;8.00;99.90
13998;DHT22;7074;51.508;7.018;2023-02-11T08:00:05;7.90;99.90
13998;DHT22;7074;51.508;7.018;2023-02-11T08:02:36;7.90;99.90
13998;DHT22;7074;51.508;7.018;2023-02-11T08:05:04;8.00;99.90
13998;DHT22;7074;51.508;7.018;2023-02-11T08:07:31;8.00;99.90
13998;DHT22;7074;51.508;7.018;2023-02-11T08:10:00;8.00;99.90
13998;DHT22;7074;51.508;7.018;2023-02-11T08:12:27;8.10;99.90
13998;DHT22;7074;51.508;7.018;2023-02-11T08:14:54;8.00;99.90
13998;DHT22;7074;51.508;7.018;2023-02-11T08:17:22;8.00;99.90
13998;DHT22;7074;51.508;7.018;2023-02-11T08:19:49;8.00;99.90
13998;DHT22;7074;51.508;7.018;2023-02-11T08:22:16;8.00;99.90
13998;DHT22;7074;51.508;7.018;2023-02-11T08:24:43;8.00;99.90
13998;DHT22;7074;51.508;7.018;2023-02-11T08:27:12;8.00;99.90
13998;DHT22;7074;51.508;7.018;2023-02-11T08:29:42;8.00;99.90
13998;DHT22;7074;51.508;7.018;2023-02-11T08:32:09;8.00;99.90
13998;DHT22;7074;51.508;7.018;2023-02-11T08:34:36;8.10;99.90
13998;DHT22;7074;51.508;7.018;2023-02-11T08:37:03;8.00;99.90
13998;DHT22;7074;51.508;7.018;2023-02-11T08:39:31;8.10;99.90
13998;DHT22;7074;51.508;7.018;2023-02-11T08:45:46;8.10;99.90
13998;DHT22;7074;51.508;7.018;2023-02-11T08:48:14;8.20;99.90
13998;DHT22;7074;51.508;7.018;2023-02-11T08:50:41;8.20;99.90
13998;DHT22;7074;51.508;7.018;2023-02-11T08:53:09;8.20;99.90
13998;DHT22;7074;51.508;7.018;2023-02-11T08:55:37;8.20;99.90
13998;DHT22;7074;51.508;7.018;2023-02-11T08:58:05;8.30;99.90
13998;DHT22;7074;51.508;7.018;2023-02-11T09:00:32;8.30;99.90
13998;DHT22;7074;51.508;7.018;2023-02-11T09:03:00;8.30;99.90
13998;DHT22;7074;51.508;7.018;2023-02-11T09:05:28;8.30;99.90
13998;DHT22;7074;51.508;7.018;2023-02-11T09:07:55;8.40;99.90
13998;DHT22;7074;51.508;7.018;2023-02-11T09:10:22;8.40;99.90
13998;DHT22;7074;51.508;7.018;2023-02-11T09:12:49;8.40;99.90
13998;DHT22;7074;51.508;7.018;2023-02-11T09:15:17;8.40;99.90
13998;DHT22;7074;51.508;7.018;2023-02-11T09:17:44;8.40;99.90
13998;DHT22;7074;51.508;7.018;2023-02-11T09:20:13;8.40;99.90
13998;DHT22;7074;51.508;7.018;2023-02-11T09:22:40;8.50;99.90
13998;DHT22;7074;51.508;7.018;2023-02-11T09:25:07;8.50;99.90
13998;DHT22;7074;51.508;7.018;2023-02-11T09:27:34;8.50;99.90
13998;DHT22;7074;51.508;7.018;2023-02-11T09:30:02;8.50;99.90
13998;DHT22;7074;51.508;7.018;2023-02-11T09:32:30;8.60;99.90
13998;DHT22;7074;51.508;7.018;2023-02-11T09:34:57;8.60;99.90
13998;DHT22;7074;51.508;7.018;2023-02-11T09:37:25;8.70;99.90
13998;DHT22;7074;51.508;7.018;2023-02-11T09:39:53;8.80;99.90
13998;DHT22;7074;51.508;7.018;2023-02-11T09:42:45;8.80;99.90
13998;DHT22;7074;51.508;7.018;2023-02-11T09:45:17;8.80;99.90
13998;DHT22;7074;51.508;7.018;2023-02-11T09:47:52;8.80;99.90
13998;DHT22;7074;51.508;7.018;2023-02-11T09:50:24;8.80;99.90
13998;DHT22;7074;51.508;7.018;2023-02-11T09:52:57;8.90;99.90
13998;DHT22;7074;51.508;7.018;2023-02-11T09:55:27;8.90;99.90
13998;DHT22;7074;51.508;7.018;2023-02-11T09:57:56;9.00;99.90
13998;DHT22;7074;51.508;7.018;2023-02-11T10:00:26;9.00;99.90
13998;DHT22;7074;51.508;7.018;2023-02-11T10:06:08;9.00;99.90
13998;DHT22;7074;51.508;7.018;2023-02-11T10:08:50;9.10;99.90
13998;DHT22;7074;51.508;7.018;2023-02-11T10:11:28;9.10;99.90
13998;DHT22;7074;51.508;7.018;2023-02-11T10:14:03;9.10;99.90
13998;DHT22;7074;51.508;7.018;2023-02-11T10:16:47;9.10;99.90
13998;DHT22;7074;51.508;7.018;2023-02-11T10:19:37;9.10;99.90
13998;DHT22;7074;51.508;7.018;2023-02-11T10:22:12;9.10;99.90
13998;DHT22;7074;51.508;7.018;2023-02-11T10:24:50;9.10;99.90
13998;DHT22;7074;51.508;7.018;2023-02-11T10:27:25;9.20;99.90
13998;DHT22;7074;51.508;7.018;2023-02-11T10:29:58;9.20;99.90
13998;DHT22;7074;51.508;7.018;2023-02-11T10:32:32;9.30;99.90
13998;DHT22;7074;51.508;7.018;2023-02-11T10:35:08;9.30;99.90
13998;DHT22;7074;51.508;7.018;2023-02-11T10:37:36;9.30;99.90
13998;DHT22;7074;51.508;7.018;2023-02-11T10:40:06;9.40;99.90
13998;DHT22;7074;51.508;7.018;2023-02-11T10:42:39;9.40;99.90
13998;DHT22;7074;51.508;7.018;2023-02-11T10:45:16;9.40;99.90
13998;DHT22;7074;51.508;7.018;2023-02-11T10:47:45;9.30;99.90
13998;DHT22;7074;51.508;7.018;2023-02-11T10:50:22;9.30;99.90
13998;DHT22;7074;51.508;7.018;2023-02-11T10:52:50;9.30;99.90
13998;DHT22;7074;51.508;7.018;2023-02-11T10:55:19;9.30;99.90
13998;DHT22;7074;51.508;7.018;2023-02-11T10:57:54;9.30;99.90
13998;DHT22;7074;51.508;7.018;2023-02-11T11:00:29;9.30;99.90
13998;DHT22;7074;51.508;7.018;2023-02-11T11:03:00;9.30;99.90
13998;DHT22;7074;51.508;7.018;2023-02-11T11:05:30;9.30;99.90
13998;DHT22;7074;51.508;7.018;2023-02-11T11:07:59;9.30;99.90
13998;DHT22;7074;51.508;7.018;2023-02-11T11:10:35;9.30;99.90
13998;DHT22;7074;51.508;7.018;2023-02-11T11:13:26;9.30;99.90
13998;DHT22;7074;51.508;7.018;2023-02-11T11:16:17;9.20;99.90
13998;DHT22;7074;51.508;7.018;2023-02-11T11:18:45;9.30;99.90
13998;DHT22;7074;51.508;7.018;2023-02-11T11:21:15;9.30;99.90
13998;DHT22;7074;51.508;7.018;2023-02-11T11:23:49;9.30;99.90
13998;DHT22;7074;51.508;7.018;2023-02-11T11:26:18;9.30;99.90
13998;DHT22;7074;51.508;7.018;2023-02-11T11:28:58;9.40;99.90
13998;DHT22;7074;51.508;7.018;2023-02-11T11:31:29;9.40;99.90
13998;DHT22;7074;51.508;7.018;2023-02-11T11:33:58;9.40;99.90
13998;DHT22;7074;51.508;7.018;2023-02-11T11:36:33;9.40;99.90
13998;DHT22;7074;51.508;7.018;2023-02-11T11:39:09;9.50;99.90
13998;DHT22;7074;51.508;7.018;2023-02-11T11:41:51;9.50;99.90
13998;DHT22;7074;51.508;7.018;2023-02-11T11:44:25;9.50;99.90
13998;DHT22;7074;51.508;7.018;2023-02-11T11:49:51;9.50;99.90
13998;DHT22;7074;51.508;7.018;2023-02-11T11:52:34;9.60;99.90
13998;DHT22;7074;51.508;7.018;2023-02-11T11:55:09;9.60;99.90
13998;DHT22;7074;51.508;7.018;2023-02-11T11:57:39;9.60;99.90
13998;DHT22;7074;51.508;7.018;2023-02-11T12:00:17;9.60;99.90
13998;DHT22;7074;51.508;7.018;2023-02-11T12:05:37;9.70;99.90
13998;DHT22;7074;51.508;7.018;2023-02-11T12:08:14;9.70;99.90
13998;DHT22;7074;51.508;7.018;2023-02-11T12:11:01;9.70;99.90
13998;DHT22;7074;51.508;7.018;2023-02-11T12:13:58;9.80;99.90
13998;DHT22;7074;51.508;7.018;2023-02-11T12:16:35;9.80;99.90
13998;DHT22;7074;51.508;7.018;2023-02-11T12:22:06;9.90;99.90
13998;DHT22;7074;51.508;7.018;2023-02-11T12:24:57;9.80;99.90
13998;DHT22;7074;51.508;7.018;2023-02-11T12:27:42;9.90;99.90
13998;DHT22;7074;51.508;7.018;2023-02-11T12:30:37;9.90;99.90
13998;DHT22;7074;51.508;7.018;2023-02-11T12:33:13;9.90;99.90
13998;DHT22;7074;51.508;7.018;2023-02-11T12:35:48;9.90;99.90
13998;DHT22;7074;51.508;7.018;2023-02-11T12:38:35;9.90;99.90
13998;DHT22;7074;51.508;7.018;2023-02-11T12:41:22;9.90;99.90
13998;DHT22;7074;51.508;7.018;2023-02-11T12:44:16;9.90;99.90
13998;DHT22;7074;51.508;7.018;2023-02-11T12:46:50;9.90;99.90
13998;DHT22;7074;51.508;7.018;2023-02-11T12:49:50;9.90;99.90
13998;DHT22;7074;51.508;7.018;2023-02-11T12:52:39;9.90;99.90
13998;DHT22;7074;51.508;7.018;2023-02-11T12:55:18;9.90;99.90
13998;DHT22;7074;51.508;7.018;2023-02-11T12:57:47;9.90;99.90
13998;DHT22;7074;51.508;7.018;2023-02-11T13:00:18;9.90;99.90
13998;DHT22;7074;51.508;7.018;2023-02-11T13:02:53;9.90;99.90
13998;DHT22;7074;51.508;7.018;2023-02-11T13:05:26;9.90;99.90
13998;DHT22;7074;51.508;7.018;2023-02-11T13:08:00;10.00;99.90
13998;DHT22;7074;51.508;7.018;2023-02-11T13:10:32;10.00;99.90
13998;DHT22;7074;51.508;7.018;2023-02-11T13:13:01;10.00;99.90
13998;DHT22;7074;51.508;7.018;2023-02-11T13:15:49;10.00;99.90
13998;DHT22;7074;51.508;7.018;2023-02-11T13:18:38;10.10;99.90
13998;DHT22;7074;51.508;7.018;2023-02-11T13:21:26;10.10;99.90
13998;DHT22;7074;51.508;7.018;2023-02-11T13:24:01;10.10;99.90
13998;DHT22;7074;51.508;7.018;2023-02-11T13:26:37;10.10;99.90
13998;DHT22;7074;51.508;7.018;2023-02-11T13:29:15;10.10;99.90
13998;DHT22;7074;51.508;7.018;2023-02-11T13:31:52;10.10;99.90
13998;DHT22;7074;51.508;7.018;2023-02-11T13:37:20;10.20;99.90
13998;DHT22;7074;51.508;7.018;2023-02-11T13:39:56;10.20;99.90
13998;DHT22;7074;51.508;7.018;2023-02-11T13:42:24;10.20;99.90
13998;DHT22;7074;51.508;7.018;2023-02-11T13:44:51;10.20;99.90
13998;DHT22;7074;51.508;7.018;2023-02-11T13:47:25;10.20;99.90
13998;DHT22;7074;51.508;7.018;2023-02-11T13:49:56;10.30;99.90
13998;DHT22;7074;51.508;7.018;2023-02-11T13:52:28;10.30;99.90
13998;DHT22;7074;51.508;7.018;2023-02-11T13:55:00;10.30;99.90
13998;DHT22;7074;51.508;7.018;2023-02-11T13:57:32;10.30;99.90
13998;DHT22;7074;51.508;7.018;2023-02-11T14:00:03;10.30;99.90
13998;DHT22;7074;51.508;7.018;2023-02-11T14:02:35;10.30;99.90
13998;DHT22;7074;51.508;7.018;2023-02-11T14:05:29;10.30;99.90
13998;DHT22;7074;51.508;7.018;2023-02-11T14:08:24;10.30;99.90
13998;DHT22;7074;51.508;7.018;2023-02-11T14:14:18;10.50;99.90
13998;DHT22;7074;51.508;7.018;2023-02-11T14:19:52;10.50;99.90
13998;DHT22;7074;51.508;7.018;2023-02-11T14:22:30;10.50;99.90
13998;DHT22;7074;51.508;7.018;2023-02-11T14:25:15;10.60;99.90
13998;DHT22;7074;51.508;7.018;2023-02-11T14:27:49;10.70;99.90
13998;DHT22;7074;51.508;7.018;2023-02-11T14:30:38;10.70;99.90
13998;DHT22;7074;51.508;7.018;2023-02-11T14:36:43;10.80;99.90
13998;DHT22;7074;51.508;7.018;2023-02-11T14:39:24;10.80;99.90
13998;DHT22;7074;51.508;7.018;2023-02-11T14:41:54;10.80;99.90
13998;DHT22;7074;51.508;7.018;2023-02-11T14:44:25;10.90;99.90
13998;DHT22;7074;51.508;7.018;2023-02-11T14:46:54;10.90;99.90
13998;DHT22;7074;51.508;7.018;2023-02-11T14:49:25;10.90;99.90
13998;DHT22;7074;51.508;7.018;2023-02-11T14:51:55;10.90;99.90
13998;DHT22;7074;51.508;7.018;2023-02-11T14:54:26;10.90;99.90
13998;DHT22;7074;51.508;7.018;2023-02-11T14:57:10;10.90;99.90
13998;DHT22;7074;51.508;7.018;2023-02-11T14:59:39;10.90;99.90
13998;DHT22;7074;51.508;7.018;2023-02-11T15:02:22;10.80;99.90
13998;DHT22;7074;51.508;7.018;2023-02-11T15:04:51;10.90;99.90
13998;DHT22;7074;51.508;7.018;2023-02-11T15:07:20;10.90;99.90
13998;DHT22;7074;51.508;7.018;2023-02-11T15:09:51;10.80;99.90
13998;DHT22;7074;51.508;7.018;2023-02-11T15:12:22;10.90;99.90
13998;DHT22;7074;51.508;7.018;2023-02-11T15:14:52;10.90;99.90
13998;DHT22;7074;51.508;7.018;2023-02-11T15:17:22;10.90;99.90
13998;DHT22;7074;51.508;7.018;2023-02-11T15:19:52;10.90;99.90
13998;DHT22;7074;51.508;7.018;2023-02-11T15:22:24;10.90;99.90
13998;DHT22;7074;51.508;7.018;2023-02-11T15:25:02;10.90;99.90
13998;DHT22;7074;51.508;7.018;2023-02-11T15:27:37;10.90;99.90
13998;DHT22;7074;51.508;7.018;2023-02-11T15:30:24;10.80;99.90
13998;DHT22;7074;51.508;7.018;2023-02-11T15:32:54;10.80;99.90
13998;DHT22;7074;51.508;7.018;2023-02-11T15:35:25;10.80;99.90
13998;DHT22;7074;51.508;7.018;2023-02-11T15:37:53;10.90;99.90
13998;DHT22;7074;51.508;7.018;2023-02-11T15:40:24;10.90;99.90
13998;DHT22;7074;51.508;7.018;2023-02-11T15:42:57;10.90;99.90
13998;DHT22;7074;51.508;7.018;2023-02-11T15:45:30;10.90;99.90
13998;DHT22;7074;51.508;7.018;2023-02-11T15:48:04;10.90;99.90
13998;DHT22;7074;51.508;7.018;2023-02-11T15:50:34;10.90;99.90
13998;DHT22;7074;51.508;7.018;2023-02-11T15:53:13;10.80;99.90
13998;DHT22;7074;51.508;7.018;2023-02-11T15:55:44;10.80;99.90
13998;DHT22;7074;51.508;7.018;2023-02-11T15:58:11;10.80;99.90
13998;DHT22;7074;51.508;7.018;2023-02-11T16:00:46;10.80;99.90
13998;DHT22;7074;51.508;7.018;2023-02-11T16:03:24;10.80;99.90
13998;DHT22;7074;51.508;7.018;2023-02-11T16:05:53;10.80;99.90
13998;DHT22;7074;51.508;7.018;2023-02-11T16:08:23;10.80;99.90
13998;DHT22;7074;51.508;7.018;2023-02-11T16:10:57;10.80;99.90
13998;DHT22;7074;51.508;7.018;2023-02-11T16:13:27;10.80;99.90
13998;DHT22;7074;51.508;7.018;2023-02-11T16:15:59;10.80;99.90
13998;DHT22;7074;51.508;7.018;2023-02-11T16:18:32;10.80;99.90
13998;DHT22;7074;51.508;7.018;2023-02-11T16:21:00;10.80;99.90
13998;DHT22;7074;51.508;7.018;2023-02-11T16:23:32;10.80;99.90
13998;DHT22;7074;51.508;7.018;2023-02-11T16:26:05;10.80;99.90
13998;DHT22;7074;51.508;7.018;2023-02-11T16:28:34;10.80;99.90
13998;DHT22;7074;51.508;7.018;2023-02-11T16:31:03;10.80;99.90
13998;DHT22;7074;51.508;7.018;2023-02-11T16:33:31;10.80;99.90
13998;DHT22;7074;51.508;7.018;2023-02-11T16:35:58;10.80;99.90
13998;DHT22;7074;51.508;7.018;2023-02-11T16:38:28;10.80;99.90
13998;DHT22;7074;51.508;7.018;2023-02-11T16:40:56;10.70;99.90
13998;DHT22;7074;51.508;7.018;2023-02-11T16:43:24;10.80;99.90
13998;DHT22;7074;51.508;7.018;2023-02-11T16:45:52;10.70;99.90
13998;DHT22;7074;51.508;7.018;2023-02-11T16:48:19;10.80;99.90
13998;DHT22;7074;51.508;7.018;2023-02-11T16:50:48;10.80;99.90
13998;DHT22;7074;51.508;7.018;2023-02-11T16:53:20;10.80;99.90
13998;DHT22;7074;51.508;7.018;2023-02-11T16:55:48;10.80;99.90
13998;DHT22;7074;51.508;7.018;2023-02-11T16:58:15;10.80;99.90
13998;DHT22;7074;51.508;7.018;2023-02-11T17:00:45;10.70;99.90
13998;DHT22;7074;51.508;7.018;2023-02-11T17:03:16;10.70;99.90